Time,TemperatureF,DewpointF,PressureIn,WindDirection,WindDirectionDegrees,WindSpeedMPH,WindSpeedGustMPH,Humidity,HourlyPrecipIn,Conditions,Clouds,dailyrainin,SoftwareType,DateUTC
2013-04-11 00:00:00,75.3,71.2,29.78,South,184,8.0,8.0,87,0.00,,,0.00,Wunderground v.1.15,2013-04-11 05:00:00,
2013-04-11 00:05:00,75.3,71.2,29.77,South,175,8.0,8.0,87,0.00,,,0.00,Wunderground v.1.15,2013-04-11 05:05:00,
2013-04-11 00:15:00,75.2,71.4,29.76,South,172,9.0,12.0,88,0.00,,,0.00,Wunderground v.1.15,2013-04-11 05:15:00,
2013-04-11 00:20:00,75.1,71.3,29.76,South,187,9.0,9.0,88,0.00,,,0.00,Wunderground v.1.15,2013-04-11 05:20:00,
2013-04-11 00:30:00,75.1,71.3,29.76,South,186,8.0,8.0,88,0.00,,,0.00,Wunderground v.1.15,2013-04-11 05:30:00,
2013-04-11 00:35:00,75.1,71.3,29.76,SSE,168,7.0,8.0,88,0.00,,,0.00,Wunderground v.1.15,2013-04-11 05:35:00,
2013-04-11 00:40:00,75.1,71.3,29.76,South,191,7.0,7.0,88,0.00,,,0.00,Wunderground v.1.15,2013-04-11 05:40:00,
2013-04-11 00:45:00,75.0,71.2,29.76,South,174,7.0,9.0,88,0.00,,,0.00,Wunderground v.1.15,2013-04-11 05:45:00,
2013-04-11 00:50:00,75.0,71.2,29.76,SSE,163,8.0,8.0,88,0.00,,,0.00,Wunderground v.1.15,2013-04-11 05:50:00,
2013-04-11 01:00:00,74.9,71.4,29.75,SSE,162,6.0,6.0,89,0.00,,,0.00,Wunderground v.1.15,2013-04-11 06:00:00,
2013-04-11 01:05:00,74.9,71.4,29.75,SSW,195,6.0,7.0,89,0.00,,,0.00,Wunderground v.1.15,2013-04-11 06:05:00,
2013-04-11 01:10:00,74.8,71.3,29.75,South,174,6.0,6.0,89,0.00,,,0.00,Wunderground v.1.15,2013-04-11 06:10:00,
2013-04-11 01:15:00,74.7,71.2,29.75,South,175,5.0,16.0,89,0.00,,,0.00,Wunderground v.1.15,2013-04-11 06:15:00,
2013-04-11 01:20:00,74.8,71.3,29.75,South,185,5.0,5.0,89,0.00,,,0.00,Wunderground v.1.15,2013-04-11 06:20:00,
2013-04-11 01:25:00,74.8,71.3,29.75,South,177,6.0,6.0,89,0.00,,,0.00,Wunderground v.1.15,2013-04-11 06:25:00,
2013-04-11 01:35:00,74.5,71.4,29.75,SSW,199,6.0,16.0,90,0.00,,,0.00,Wunderground v.1.15,2013-04-11 06:35:00,
2013-04-11 01:40:00,74.4,71.3,29.75,SW,219,6.0,16.0,90,0.00,,,0.00,Wunderground v.1.15,2013-04-11 06:40:00,
2013-04-11 01:45:00,74.3,71.2,29.74,SSE,162,6.0,16.0,90,0.00,,,0.00,Wunderground v.1.15,2013-04-11 06:45:00,
2013-04-11 01:50:00,74.3,71.2,29.74,South,172,6.0,16.0,90,0.00,,,0.00,Wunderground v.1.15,2013-04-11 06:50:00,
2013-04-11 01:55:00,74.3,71.2,29.74,South,189,7.0,16.0,90,0.00,,,0.00,Wunderground v.1.15,2013-04-11 06:55:00,
2013-04-11 02:05:00,74.1,71.3,29.74,South,187,7.0,16.0,91,0.00,,,0.00,Wunderground v.1.15,2013-04-11 07:05:00,
2013-04-11 02:10:00,74.1,71.3,29.73,SW,214,7.0,16.0,91,0.00,,,0.00,Wunderground v.1.15,2013-04-11 07:10:00,
2013-04-11 02:15:00,74.1,71.3,29.73,South,191,8.0,16.0,91,0.00,,,0.00,Wunderground v.1.15,2013-04-11 07:15:00,
2013-04-11 02:20:00,74.0,71.2,29.73,SSW,209,7.0,7.0,91,0.00,,,0.00,Wunderground v.1.15,2013-04-11 07:20:00,
2013-04-11 02:25:00,74.0,71.2,29.73,SSW,207,6.0,16.0,91,0.00,,,0.01,Wunderground v.1.15,2013-04-11 07:25:00,
2013-04-11 02:30:00,73.9,71.4,29.73,SSW,195,6.0,16.0,92,0.00,,,0.01,Wunderground v.1.15,2013-04-11 07:30:00,
2013-04-11 02:40:00,73.7,71.2,29.72,South,180,6.0,16.0,92,0.00,,,0.01,Wunderground v.1.15,2013-04-11 07:40:00,
2013-04-11 02:45:00,73.6,71.1,29.72,SSE,157,7.0,16.0,92,0.00,,,0.01,Wunderground v.1.15,2013-04-11 07:45:00,
2013-04-11 02:50:00,73.6,71.4,29.72,South,181,7.0,7.0,93,0.00,,,0.01,Wunderground v.1.15,2013-04-11 07:50:00,
2013-04-11 02:55:00,73.6,71.4,29.72,South,174,7.0,16.0,93,0.00,,,0.01,Wunderground v.1.15,2013-04-11 07:55:00,
2013-04-11 03:00:00,73.5,71.4,29.72,SSW,196,7.0,16.0,93,0.00,,,0.01,Wunderground v.1.15,2013-04-11 08:00:00,
2013-04-11 03:10:00,73.5,71.4,29.72,SSE,162,7.0,7.0,93,0.00,,,0.01,Wunderground v.1.15,2013-04-11 08:10:00,
2013-04-11 03:15:00,73.5,71.4,29.72,South,179,8.0,10.0,93,0.00,,,0.01,Wunderground v.1.15,2013-04-11 08:15:00,
2013-04-11 03:20:00,73.6,71.4,29.72,South,184,8.0,8.0,93,0.00,,,0.01,Wunderground v.1.15,2013-04-11 08:20:00,
2013-04-11 03:25:00,73.5,71.4,29.71,SSE,162,7.0,16.0,93,0.00,,,0.01,Wunderground v.1.15,2013-04-11 08:25:00,
2013-04-11 03:30:00,73.4,71.3,29.71,SW,216,7.0,16.0,93,0.00,,,0.01,Wunderground v.1.15,2013-04-11 08:30:00,
2013-04-11 03:35:00,73.3,71.2,29.70,SE,146,7.0,16.0,93,0.00,,,0.01,Wunderground v.1.15,2013-04-11 08:35:00,
2013-04-11 03:40:00,73.3,71.5,29.69,South,177,6.0,16.0,94,0.00,,,0.01,Wunderground v.1.15,2013-04-11 08:40:00,
2013-04-11 03:45:00,73.2,71.1,29.69,SSE,154,6.0,16.0,93,0.00,,,0.01,Wunderground v.1.15,2013-04-11 08:45:00,
2013-04-11 03:50:00,73.2,71.1,29.69,SSE,164,7.0,16.0,93,0.00,,,0.01,Wunderground v.1.15,2013-04-11 08:50:00,
2013-04-11 03:55:00,73.2,71.1,29.69,South,190,7.0,16.0,93,0.00,,,0.01,Wunderground v.1.15,2013-04-11 08:55:00,
2013-04-11 04:00:00,73.3,71.2,29.69,South,170,6.0,6.0,93,0.00,,,0.01,Wunderground v.1.15,2013-04-11 09:00:00,
2013-04-11 04:05:00,73.3,71.2,29.69,SSE,156,6.0,7.0,93,0.00,,,0.01,Wunderground v.1.15,2013-04-11 09:05:00,
2013-04-11 04:20:00,73.3,71.2,29.69,SE,142,6.0,6.0,93,0.00,,,0.01,Wunderground v.1.15,2013-04-11 09:20:00,
2013-04-11 04:25:00,73.2,71.1,29.69,South,176,5.0,16.0,93,0.00,,,0.01,Wunderground v.1.15,2013-04-11 09:25:00,
2013-04-11 04:30:00,73.1,71.0,29.69,SW,221,4.0,16.0,93,0.00,,,0.01,Wunderground v.1.15,2013-04-11 09:30:00,
2013-04-11 04:35:00,73.1,71.0,29.69,South,188,4.0,16.0,93,0.00,,,0.01,Wunderground v.1.15,2013-04-11 09:35:00,
2013-04-11 04:45:00,73.2,71.4,29.68,South,169,5.0,16.0,94,0.00,,,0.01,Wunderground v.1.15,2013-04-11 09:45:00,
2013-04-11 04:50:00,73.2,71.4,29.69,SW,235,5.0,16.0,94,0.00,,,0.01,Wunderground v.1.15,2013-04-11 09:50:00,
2013-04-11 04:55:00,70.1,65.0,29.69,WNW,299,5.0,16.0,84,0.15,,,0.03,Wunderground v.1.15,2013-04-11 09:55:00,
2013-04-11 05:00:00,66.4,63.1,29.69,NNW,333,5.0,5.0,89,0.07,,,0.03,Wunderground v.1.15,2013-04-11 10:00:00,
2013-04-11 05:05:00,64.5,61.5,29.69,NW,311,6.0,6.0,90,0.04,,,0.03,Wunderground v.1.15,2013-04-11 10:05:00,
2013-04-11 05:10:00,63.4,61.3,29.68,WNW,299,6.0,6.0,93,0.00,,,0.03,Wunderground v.1.15,2013-04-11 10:10:00,
2013-04-11 05:20:00,62.2,60.5,29.69,NNW,333,6.0,16.0,94,0.00,,,0.03,Wunderground v.1.15,2013-04-11 10:20:00,
2013-04-11 05:25:00,61.5,59.8,29.69,NNE,15,5.0,16.0,94,0.00,,,0.03,Wunderground v.1.15,2013-04-11 10:25:00,
2013-04-11 05:30:00,60.6,58.6,29.69,NNW,329,6.0,16.0,93,0.00,,,0.03,Wunderground v.1.15,2013-04-11 10:30:00,
2013-04-11 05:35:00,59.2,57.2,29.69,NW,309,8.0,16.0,93,0.00,,,0.03,Wunderground v.1.15,2013-04-11 10:35:00,
2013-04-11 05:40:00,58.3,56.3,29.70,NW,323,8.0,16.0,93,0.00,,,0.03,Wunderground v.1.15,2013-04-11 10:40:00,
2013-04-11 05:50:00,57.3,55.9,29.70,NNW,328,8.0,8.0,95,0.00,,,0.03,Wunderground v.1.15,2013-04-11 10:50:00,
2013-04-11 05:55:00,57.0,55.6,29.69,NE,39,8.0,16.0,95,0.00,,,0.03,Wunderground v.1.15,2013-04-11 10:55:00,
2013-04-11 06:00:00,56.7,55.3,29.70,North,356,8.0,8.0,95,0.00,,,0.03,Wunderground v.1.15,2013-04-11 11:00:00,
2013-04-11 06:05:00,56.3,54.9,29.70,North,8,8.0,10.0,95,0.00,,,0.03,Wunderground v.1.15,2013-04-11 11:05:00,
2013-04-11 06:10:00,56.1,54.7,29.71,NNW,344,9.0,9.0,95,0.00,,,0.03,Wunderground v.1.15,2013-04-11 11:10:00,
2013-04-11 06:15:00,55.7,54.3,29.71,North,11,9.0,16.0,95,0.00,,,0.03,Wunderground v.1.15,2013-04-11 11:15:00,
2013-04-11 06:25:00,55.3,53.9,29.70,NW,322,6.0,16.0,95,0.00,,,0.03,Wunderground v.1.15,2013-04-11 11:25:00,
2013-04-11 06:30:00,54.9,53.5,29.70,NNW,334,7.0,16.0,95,0.00,,,0.03,Wunderground v.1.15,2013-04-11 11:30:00,
2013-04-11 06:35:00,54.6,53.2,29.69,North,356,8.0,16.0,95,0.00,,,0.03,Wunderground v.1.15,2013-04-11 11:35:00,
2013-04-11 06:40:00,54.4,53.0,29.69,NNW,336,8.0,8.0,95,0.00,,,0.03,Wunderground v.1.15,2013-04-11 11:40:00,
2013-04-11 06:45:00,54.3,52.9,29.70,NW,320,8.0,16.0,95,0.00,,,0.03,Wunderground v.1.15,2013-04-11 11:45:00,
2013-04-11 06:50:00,54.2,52.8,29.71,North,11,7.0,7.0,95,0.00,,,0.03,Wunderground v.1.15,2013-04-11 11:50:00,
2013-04-11 06:55:00,54.1,52.7,29.71,North,6,8.0,8.0,95,0.00,,,0.03,Wunderground v.1.15,2013-04-11 11:55:00,
2013-04-11 07:00:00,54.1,52.7,29.70,North,2,7.0,7.0,95,0.00,,,0.03,Wunderground v.1.15,2013-04-11 12:00:00,
2013-04-11 07:05:00,54.1,52.7,29.71,North,2,6.0,16.0,95,0.00,,,0.03,Wunderground v.1.15,2013-04-11 12:05:00,
2013-04-11 07:10:00,54.1,52.7,29.72,North,5,6.0,16.0,95,0.00,,,0.03,Wunderground v.1.15,2013-04-11 12:10:00,
2013-04-11 07:15:00,54.2,52.8,29.73,NNW,336,5.0,16.0,95,0.00,,,0.03,Wunderground v.1.15,2013-04-11 12:15:00,
2013-04-11 07:20:00,54.2,52.8,29.72,North,354,7.0,7.0,95,0.00,,,0.03,Wunderground v.1.15,2013-04-11 12:20:00,
2013-04-11 07:25:00,54.2,52.8,29.72,NNW,342,7.0,9.0,95,0.00,,,0.04,Wunderground v.1.15,2013-04-11 12:25:00,
2013-04-11 07:30:00,53.9,52.5,29.72,NNW,333,7.0,16.0,95,0.06,,,0.04,Wunderground v.1.15,2013-04-11 12:30:00,
2013-04-11 07:35:00,53.6,52.5,29.72,North,11,9.0,16.0,96,0.06,,,0.05,Wunderground v.1.15,2013-04-11 12:35:00,
2013-04-11 07:40:00,53.6,52.5,29.72,North,356,7.0,16.0,96,0.06,,,0.05,Wunderground v.1.15,2013-04-11 12:40:00,
2013-04-11 07:45:00,53.3,52.2,29.71,North,354,6.0,16.0,96,0.04,,,0.05,Wunderground v.1.15,2013-04-11 12:45:00,
2013-04-11 07:50:00,53.4,52.3,29.72,NNW,340,8.0,8.0,96,0.00,,,0.06,Wunderground v.1.15,2013-04-11 12:50:00,
2013-04-11 08:00:00,53.3,52.5,29.74,NNW,347,8.0,16.0,97,0.00,,,0.06,Wunderground v.1.15,2013-04-11 13:00:00,
2013-04-11 08:05:00,53.3,52.5,29.75,NW,305,8.0,16.0,97,0.00,,,0.06,Wunderground v.1.15,2013-04-11 13:05:00,
2013-04-11 08:10:00,53.0,51.9,29.76,NNW,327,9.0,16.0,96,0.00,,,0.06,Wunderground v.1.15,2013-04-11 13:10:00,
2013-04-11 08:15:00,52.4,51.0,29.76,NNW,338,11.0,16.0,95,0.00,,,0.06,Wunderground v.1.15,2013-04-11 13:15:00,
2013-04-11 08:20:00,52.0,50.9,29.74,ENE,65,12.0,12.0,96,0.00,,,0.06,Wunderground v.1.15,2013-04-11 13:20:00,
2013-04-11 08:25:00,51.7,50.6,29.73,WNW,303,11.0,16.0,96,0.00,,,0.06,Wunderground v.1.15,2013-04-11 13:25:00,
2013-04-11 08:30:00,51.5,50.4,29.81,NNW,333,11.0,11.0,96,0.00,,,0.06,Wunderground v.1.15,2013-04-11 13:30:00,
2013-04-11 08:35:00,51.0,49.6,29.77,NNW,345,11.0,16.0,95,1.40,,,0.17,Wunderground v.1.15,2013-04-11 13:35:00,
2013-04-11 08:40:00,50.6,49.5,29.75,NNE,18,11.0,16.0,96,0.97,,,0.25,Wunderground v.1.15,2013-04-11 13:40:00,
2013-04-11 08:45:00,50.4,49.6,29.77,NNW,327,10.0,16.0,97,0.38,,,0.29,Wunderground v.1.15,2013-04-11 13:45:00,
2013-04-11 08:55:00,50.6,50.1,29.71,NNE,18,9.0,16.0,98,0.10,,,0.30,Wunderground v.1.15,2013-04-11 13:55:00,
2013-04-11 09:00:00,51.2,50.7,29.80,NW,305,9.0,9.0,98,0.05,,,0.30,Wunderground v.1.15,2013-04-11 14:00:00,
2013-04-11 09:05:00,51.6,51.1,29.76,NNW,341,8.0,13.0,98,1.82,,,0.43,Wunderground v.1.15,2013-04-11 14:05:00,
2013-04-11 09:10:00,51.6,51.1,29.76,North,359,9.0,9.0,98,0.46,,,0.51,Wunderground v.1.15,2013-04-11 14:10:00,
2013-04-11 09:15:00,51.7,51.2,29.76,North,1,9.0,16.0,98,0.14,,,0.52,Wunderground v.1.15,2013-04-11 14:15:00,
2013-04-11 09:20:00,51.8,51.3,29.79,NW,326,7.0,7.0,98,0.07,,,0.53,Wunderground v.1.15,2013-04-11 14:20:00,
2013-04-11 09:25:00,51.8,51.3,29.80,NW,309,6.0,16.0,98,0.87,,,0.57,Wunderground v.1.15,2013-04-11 14:25:00,
2013-04-11 09:35:00,51.6,51.1,29.79,NW,319,6.0,16.0,98,0.25,,,0.65,Wunderground v.1.15,2013-04-11 14:35:00,
2013-04-11 09:40:00,51.5,51.0,29.79,NNW,335,8.0,8.0,98,0.41,,,0.68,Wunderground v.1.15,2013-04-11 14:40:00,
2013-04-11 09:45:00,51.3,50.8,29.79,NW,324,9.0,9.0,98,0.10,,,0.68,Wunderground v.1.15,2013-04-11 14:45:00,
2013-04-11 09:50:00,51.3,50.8,29.79,West,280,9.0,9.0,98,0.07,,,0.69,Wunderground v.1.15,2013-04-11 14:50:00,
2013-04-11 09:55:00,51.2,50.7,29.80,NNW,331,9.0,16.0,98,0.12,,,0.70,Wunderground v.1.15,2013-04-11 14:55:00,
2013-04-11 10:00:00,51.0,50.5,29.82,NNW,336,8.0,8.0,98,0.55,,,0.75,Wunderground v.1.15,2013-04-11 15:00:00,
2013-04-11 10:10:00,50.9,50.4,29.82,NNW,333,8.0,16.0,98,0.21,,,0.78,Wunderground v.1.15,2013-04-11 15:10:00,
2013-04-11 10:15:00,50.9,50.4,29.80,NE,37,7.0,16.0,98,0.08,,,0.78,Wunderground v.1.15,2013-04-11 15:15:00,
2013-04-11 10:20:00,50.8,50.0,29.81,NNW,338,8.0,8.0,97,0.05,,,0.78,Wunderground v.1.15,2013-04-11 15:20:00,
2013-04-11 10:25:00,50.7,50.2,29.81,North,355,7.0,16.0,98,0.04,,,0.79,Wunderground v.1.15,2013-04-11 15:25:00,
2013-04-11 10:30:00,50.4,49.6,29.82,NW,323,7.0,16.0,97,0.09,,,0.80,Wunderground v.1.15,2013-04-11 15:30:00,
2013-04-11 10:40:00,50.5,50.0,29.83,NNW,333,8.0,16.0,98,0.05,,,0.80,Wunderground v.1.15,2013-04-11 15:40:00,
2013-04-11 10:45:00,50.5,50.0,29.83,NNE,27,7.0,16.0,98,0.05,,,0.81,Wunderground v.1.15,2013-04-11 15:45:00,
2013-04-11 10:50:00,50.6,49.8,29.82,NNE,14,8.0,8.0,97,0.05,,,0.81,Wunderground v.1.15,2013-04-11 15:50:00,
2013-04-11 10:55:00,51.0,50.5,29.83,North,1,7.0,12.0,98,0.05,,,0.81,Wunderground v.1.15,2013-04-11 15:55:00,
2013-04-11 11:00:00,51.1,50.3,29.82,NNW,340,9.0,9.0,97,0.00,,,0.81,Wunderground v.1.15,2013-04-11 16:00:00,
2013-04-11 11:05:00,51.5,50.7,29.82,North,352,10.0,10.0,97,0.00,,,0.81,Wunderground v.1.15,2013-04-11 16:05:00,
2013-04-11 11:15:00,52.3,51.5,29.84,NNW,328,8.0,16.0,97,0.00,,,0.81,Wunderground v.1.15,2013-04-11 16:15:00,
2013-04-11 11:20:00,52.3,51.2,29.84,NW,324,8.0,16.0,96,0.00,,,0.81,Wunderground v.1.15,2013-04-11 16:20:00,
2013-04-11 11:25:00,52.8,51.7,29.82,NNW,345,9.0,16.0,96,0.00,,,0.81,Wunderground v.1.15,2013-04-11 16:25:00,
2013-04-11 11:30:00,53.2,52.1,29.82,NNW,345,9.0,9.0,96,0.00,,,0.81,Wunderground v.1.15,2013-04-11 16:30:00,
2013-04-11 11:35:00,53.4,52.6,29.82,NNE,14,7.0,10.0,97,0.00,,,0.81,Wunderground v.1.15,2013-04-11 16:35:00,
2013-04-11 11:45:00,52.9,51.5,29.82,North,11,10.0,16.0,95,0.00,,,0.81,Wunderground v.1.15,2013-04-11 16:45:00,
2013-04-11 11:50:00,53.0,51.9,29.82,NNW,346,9.0,9.0,96,0.00,,,0.81,Wunderground v.1.15,2013-04-11 16:50:00,
2013-04-11 11:55:00,53.6,52.2,29.83,North,356,8.0,12.0,95,0.00,,,0.81,Wunderground v.1.15,2013-04-11 16:55:00,
2013-04-11 12:00:00,53.7,52.0,29.80,North,8,9.0,9.0,94,0.00,,,0.81,Wunderground v.1.15,2013-04-11 17:00:00,
2013-04-11 12:05:00,54.3,52.9,29.79,NE,52,8.0,16.0,95,0.00,,,0.81,Wunderground v.1.15,2013-04-11 17:05:00,
2013-04-11 12:10:00,54.7,53.0,29.81,NNW,340,6.0,6.0,94,0.00,,,0.81,Wunderground v.1.15,2013-04-11 17:10:00,
2013-04-11 12:20:00,54.9,52.6,29.80,North,5,8.0,16.0,92,0.00,,,0.81,Wunderground v.1.15,2013-04-11 17:20:00,
2013-04-11 12:25:00,54.9,52.9,29.80,NNE,13,7.0,16.0,93,0.00,,,0.81,Wunderground v.1.15,2013-04-11 17:25:00,
2013-04-11 12:30:00,54.7,52.7,29.79,North,5,6.0,6.0,93,0.00,,,0.81,Wunderground v.1.15,2013-04-11 17:30:00,
2013-04-11 12:35:00,54.3,52.0,29.78,NW,323,6.0,16.0,92,0.00,,,0.81,Wunderground v.1.15,2013-04-11 17:35:00,
2013-04-11 12:40:00,53.9,51.9,29.78,NW,313,4.0,16.0,93,0.00,,,0.81,Wunderground v.1.15,2013-04-11 17:40:00,
2013-04-11 12:50:00,54.1,52.4,29.76,WNW,282,3.0,3.0,94,0.00,,,0.81,Wunderground v.1.15,2013-04-11 17:50:00,
2013-04-11 12:55:00,54.8,52.8,29.74,ENE,58,2.0,7.0,93,0.00,,,0.81,Wunderground v.1.15,2013-04-11 17:55:00,
2013-04-11 13:00:00,55.5,53.5,29.74,NE,51,3.0,16.0,93,0.00,,,0.81,Wunderground v.1.15,2013-04-11 18:00:00,
2013-04-11 13:05:00,55.7,53.4,29.73,East,85,4.0,16.0,92,0.00,,,0.81,Wunderground v.1.15,2013-04-11 18:05:00,
2013-04-11 13:10:00,55.6,53.0,29.73,ESE,110,4.0,16.0,91,0.00,,,0.81,Wunderground v.1.15,2013-04-11 18:10:00,
2013-04-11 13:15:00,55.8,53.5,29.73,ENE,68,5.0,16.0,92,0.00,,,0.81,Wunderground v.1.15,2013-04-11 18:15:00,
2013-04-11 13:25:00,55.9,53.0,29.74,ENE,77,4.0,16.0,90,0.00,,,0.81,Wunderground v.1.15,2013-04-11 18:25:00,
2013-04-11 13:30:00,56.1,53.5,29.74,North,355,4.0,16.0,91,0.00,,,0.81,Wunderground v.1.15,2013-04-11 18:30:00,
2013-04-11 13:35:00,56.5,53.3,29.74,NNE,24,4.0,16.0,89,0.00,,,0.81,Wunderground v.1.15,2013-04-11 18:35:00,
2013-04-11 13:40:00,56.8,53.6,29.75,NW,304,4.0,4.0,89,0.00,,,0.81,Wunderground v.1.15,2013-04-11 18:40:00,
2013-04-11 13:45:00,57.6,54.4,29.76,NW,312,3.0,6.0,89,0.00,,,0.81,Wunderground v.1.15,2013-04-11 18:45:00,
2013-04-11 13:55:00,58.9,55.0,29.76,North,353,5.0,16.0,87,0.00,,,0.81,Wunderground v.1.15,2013-04-11 18:55:00,
2013-04-11 14:00:00,59.0,54.5,29.75,NW,313,6.0,16.0,85,0.00,,,0.81,Wunderground v.1.15,2013-04-11 19:00:00,
2013-04-11 14:05:00,59.0,54.8,29.77,NW,314,7.0,16.0,86,0.00,,,0.81,Wunderground v.1.15,2013-04-11 19:05:00,
2013-04-11 14:10:00,58.8,54.6,29.76,NW,316,7.0,7.0,86,0.00,,,0.81,Wunderground v.1.15,2013-04-11 19:10:00,
2013-04-11 14:15:00,59.2,55.3,29.76,NW,307,7.0,16.0,87,0.00,,,0.81,Wunderground v.1.15,2013-04-11 19:15:00,
2013-04-11 14:20:00,59.9,56.0,29.77,WNW,300,6.0,16.0,87,0.00,,,0.81,Wunderground v.1.15,2013-04-11 19:20:00,
2013-04-11 14:30:00,60.0,55.2,29.77,North,4,6.0,6.0,84,0.00,,,0.81,Wunderground v.1.15,2013-04-11 19:30:00,
2013-04-11 14:35:00,59.7,54.5,29.78,NNW,327,6.0,16.0,83,0.00,,,0.81,Wunderground v.1.15,2013-04-11 19:35:00,
2013-04-11 14:40:00,59.3,54.1,29.77,NNW,336,7.0,7.0,83,0.00,,,0.81,Wunderground v.1.15,2013-04-11 19:40:00,
2013-04-11 14:45:00,59.3,54.5,29.78,NNW,347,7.0,16.0,84,0.00,,,0.81,Wunderground v.1.15,2013-04-11 19:45:00,
2013-04-11 14:50:00,59.1,54.3,29.78,NW,309,6.0,6.0,84,0.00,,,0.81,Wunderground v.1.15,2013-04-11 19:50:00,
2013-04-11 15:00:00,58.7,54.2,29.77,NNW,348,6.0,6.0,85,0.00,,,0.81,Wunderground v.1.15,2013-04-11 20:00:00,
2013-04-11 15:05:00,59.1,53.9,29.78,NW,320,4.0,16.0,83,0.00,,,0.81,Wunderground v.1.15,2013-04-11 20:05:00,
2013-04-11 15:10:00,59.2,54.4,29.78,NW,316,4.0,16.0,84,0.00,,,0.81,Wunderground v.1.15,2013-04-11 20:10:00,
2013-04-11 15:15:00,59.8,54.6,29.76,NW,311,4.0,16.0,83,0.00,,,0.81,Wunderground v.1.15,2013-04-11 20:15:00,
2013-04-11 15:20:00,60.0,54.8,29.76,NW,319,5.0,16.0,83,0.00,,,0.81,Wunderground v.1.15,2013-04-11 20:20:00,
2013-04-11 15:25:00,60.1,54.6,29.76,NNE,28,6.0,16.0,82,0.00,,,0.81,Wunderground v.1.15,2013-04-11 20:25:00,
2013-04-11 15:30:00,60.6,55.4,29.76,NW,321,8.0,16.0,83,0.00,,,0.81,Wunderground v.1.15,2013-04-11 20:30:00,
2013-04-11 15:35:00,61.6,56.0,29.76,NNW,348,7.0,16.0,82,0.00,,,0.81,Wunderground v.1.15,2013-04-11 20:35:00,
2013-04-11 15:40:00,61.8,55.2,29.76,NNW,338,8.0,8.0,79,0.00,,,0.81,Wunderground v.1.15,2013-04-11 20:40:00,
2013-04-11 15:45:00,62.1,55.5,29.76,NNW,332,8.0,16.0,79,0.00,,,0.81,Wunderground v.1.15,2013-04-11 20:45:00,
2013-04-11 15:50:00,62.4,55.8,29.76,NNW,327,6.0,16.0,79,0.00,,,0.81,Wunderground v.1.15,2013-04-11 20:50:00,
2013-04-11 15:55:00,62.6,56.7,29.76,NNW,331,6.0,16.0,81,0.00,,,0.81,Wunderground v.1.15,2013-04-11 20:55:00,
2013-04-11 16:00:00,62.6,55.3,29.76,NNW,327,6.0,6.0,77,0.00,,,0.81,Wunderground v.1.15,2013-04-11 21:00:00,
2013-04-11 16:05:00,62.9,55.6,29.76,NNW,331,5.0,16.0,77,0.00,,,0.81,Wunderground v.1.15,2013-04-11 21:05:00,
2013-04-11 16:10:00,62.8,55.1,29.75,NNW,338,5.0,5.0,76,0.00,,,0.81,Wunderground v.1.15,2013-04-11 21:10:00,
2013-04-11 16:15:00,62.8,56.2,29.75,WNW,302,5.0,16.0,79,0.00,,,0.81,Wunderground v.1.15,2013-04-11 21:15:00,
2013-04-11 16:20:00,63.3,55.6,29.75,North,8,5.0,5.0,76,0.00,,,0.81,Wunderground v.1.15,2013-04-11 21:20:00,
2013-04-11 16:25:00,63.6,55.5,29.76,NNW,335,5.0,16.0,75,0.00,,,0.81,Wunderground v.1.15,2013-04-11 21:25:00,
2013-04-11 16:30:00,63.7,55.6,29.76,NNW,333,6.0,16.0,75,0.00,,,0.81,Wunderground v.1.15,2013-04-11 21:30:00,
2013-04-11 16:40:00,62.9,54.5,29.76,NW,321,7.0,7.0,74,0.00,,,0.81,Wunderground v.1.15,2013-04-11 21:40:00,
2013-04-11 16:45:00,63.0,55.3,29.76,North,352,7.0,8.0,76,0.00,,,0.81,Wunderground v.1.15,2013-04-11 21:45:00,
2013-04-11 16:50:00,63.5,55.8,29.76,North,1,7.0,7.0,76,0.00,,,0.81,Wunderground v.1.15,2013-04-11 21:50:00,
2013-04-11 16:55:00,63.7,56.0,29.76,NW,306,6.0,16.0,76,0.00,,,0.81,Wunderground v.1.15,2013-04-11 21:55:00,
2013-04-11 17:00:00,64.0,56.3,29.76,NNW,348,5.0,16.0,76,0.00,,,0.81,Wunderground v.1.15,2013-04-11 22:00:00,
2013-04-11 17:05:00,64.0,55.2,29.76,NNW,346,5.0,16.0,73,0.00,,,0.81,Wunderground v.1.15,2013-04-11 22:05:00,
2013-04-11 17:10:00,64.2,55.4,29.76,NNW,338,5.0,5.0,73,0.00,,,0.81,Wunderground v.1.15,2013-04-11 22:10:00,
2013-04-11 17:15:00,64.3,55.1,29.76,NW,326,5.0,16.0,72,0.00,,,0.81,Wunderground v.1.15,2013-04-11 22:15:00,
2013-04-11 17:20:00,64.4,55.6,29.76,WNW,302,5.0,5.0,73,0.00,,,0.81,Wunderground v.1.15,2013-04-11 22:20:00,
2013-04-11 17:25:00,64.4,55.9,29.76,NNW,328,4.0,16.0,74,0.00,,,0.81,Wunderground v.1.15,2013-04-11 22:25:00,
2013-04-11 17:30:00,64.6,55.7,29.77,NNW,336,5.0,5.0,73,0.00,,,0.81,Wunderground v.1.15,2013-04-11 22:30:00,
2013-04-11 17:35:00,64.2,54.6,29.77,NW,309,6.0,6.0,71,0.00,,,0.81,Wunderground v.1.15,2013-04-11 22:35:00,
2013-04-11 17:40:00,64.2,54.6,29.77,North,8,5.0,16.0,71,0.00,,,0.81,Wunderground v.1.15,2013-04-11 22:40:00,
2013-04-11 17:45:00,64.2,54.6,29.77,NNW,346,5.0,16.0,71,0.00,,,0.81,Wunderground v.1.15,2013-04-11 22:45:00,
2013-04-11 17:50:00,64.3,54.3,29.77,NNW,329,5.0,5.0,70,0.00,,,0.81,Wunderground v.1.15,2013-04-11 22:50:00,
2013-04-11 17:55:00,64.2,55.0,29.77,North,349,5.0,6.0,72,0.00,,,0.81,Wunderground v.1.15,2013-04-11 22:55:00,
2013-04-11 18:00:00,64.1,55.6,29.78,NNW,333,5.0,16.0,74,0.00,,,0.81,Wunderground v.1.15,2013-04-11 23:00:00,
2013-04-11 18:05:00,64.1,53.7,29.78,NW,321,5.0,16.0,69,0.00,,,0.81,Wunderground v.1.15,2013-04-11 23:05:00,
2013-04-11 18:15:00,63.9,53.9,29.78,NNW,345,5.0,16.0,70,0.00,,,0.81,Wunderground v.1.15,2013-04-11 23:15:00,
2013-04-11 18:20:00,63.9,53.9,29.79,North,351,5.0,16.0,70,0.00,,,0.81,Wunderground v.1.15,2013-04-11 23:20:00,
2013-04-11 18:25:00,63.7,53.7,29.79,NW,321,5.0,16.0,70,0.00,,,0.81,Wunderground v.1.15,2013-04-11 23:25:00,
2013-04-11 18:30:00,63.5,53.9,29.79,North,1,5.0,16.0,71,0.00,,,0.81,Wunderground v.1.15,2013-04-11 23:30:00,
2013-04-11 18:35:00,63.3,53.7,29.78,North,349,5.0,16.0,71,0.00,,,0.81,Wunderground v.1.15,2013-04-11 23:35:00,
2013-04-11 18:45:00,63.2,53.6,29.77,NNW,342,4.0,16.0,71,0.00,,,0.81,Wunderground v.1.15,2013-04-11 23:45:00,
2013-04-11 18:50:00,63.1,53.9,29.77,North,4,4.0,16.0,72,0.00,,,0.81,Wunderground v.1.15,2013-04-11 23:50:00,
2013-04-11 18:55:00,62.7,53.9,29.76,NE,52,4.0,16.0,73,0.00,,,0.81,Wunderground v.1.15,2013-04-11 23:55:00,
2013-04-11 19:00:00,62.2,53.4,29.76,NNW,340,3.0,3.0,73,0.00,,,0.81,Wunderground v.1.15,2013-04-12 00:00:00,
2013-04-11 19:05:00,61.8,53.4,29.77,North,7,2.0,16.0,74,0.00,,,0.81,Wunderground v.1.15,2013-04-12 00:05:00,
2013-04-11 19:10:00,61.4,53.4,29.77,NE,56,2.0,16.0,75,0.00,,,0.81,Wunderground v.1.15,2013-04-12 00:10:00,
2013-04-11 19:20:00,60.7,53.1,29.78,North,360,2.0,16.0,76,0.00,,,0.81,Wunderground v.1.15,2013-04-12 00:20:00,
2013-04-11 19:25:00,60.1,52.9,29.78,NE,43,2.0,16.0,77,0.00,,,0.81,Wunderground v.1.15,2013-04-12 00:25:00,
2013-04-11 19:30:00,59.7,52.8,29.78,NE,44,2.0,16.0,78,0.00,,,0.81,Wunderground v.1.15,2013-04-12 00:30:00,
2013-04-11 19:35:00,59.2,53.0,29.78,NE,43,1.0,16.0,80,0.00,,,0.81,Wunderground v.1.15,2013-04-12 00:35:00,
2013-04-11 19:40:00,58.8,52.6,29.79,NE,53,1.0,1.0,80,0.00,,,0.81,Wunderground v.1.15,2013-04-12 00:40:00,
2013-04-11 19:50:00,58.2,52.7,29.80,NE,42,0.0,16.0,82,0.00,,,0.81,Wunderground v.1.15,2013-04-12 00:50:00,
2013-04-11 19:55:00,58.0,52.5,29.80,NE,43,0.0,16.0,82,0.00,,,0.81,Wunderground v.1.15,2013-04-12 00:55:00,
2013-04-11 20:00:00,57.8,52.7,29.79,ENE,59,1.0,1.0,83,0.00,,,0.81,Wunderground v.1.15,2013-04-12 01:00:00,
2013-04-11 20:05:00,57.5,52.4,29.79,ENE,59,0.0,16.0,83,0.00,,,0.81,Wunderground v.1.15,2013-04-12 01:05:00,
2013-04-11 20:10:00,57.2,53.0,29.80,ENE,59,0.0,16.0,86,0.00,,,0.81,Wunderground v.1.15,2013-04-12 01:10:00,
2013-04-11 20:15:00,56.9,53.1,29.81,ENE,59,0.0,16.0,87,0.00,,,0.81,Wunderground v.1.15,2013-04-12 01:15:00,
2013-04-11 20:25:00,56.1,52.6,29.81,ENE,57,0.0,16.0,88,0.00,,,0.81,Wunderground v.1.15,2013-04-12 01:25:00,
2013-04-11 20:30:00,55.8,52.6,29.81,ENE,57,0.0,16.0,89,0.00,,,0.81,Wunderground v.1.15,2013-04-12 01:30:00,
2013-04-11 20:35:00,55.4,52.5,29.81,ENE,57,0.0,16.0,90,0.00,,,0.81,Wunderground v.1.15,2013-04-12 01:35:00,
2013-04-11 20:40:00,55.1,52.2,29.82,ENE,57,0.0,16.0,90,0.00,,,0.81,Wunderground v.1.15,2013-04-12 01:40:00,
2013-04-11 20:45:00,54.7,52.1,29.82,ENE,57,0.0,16.0,91,0.00,,,0.81,Wunderground v.1.15,2013-04-12 01:45:00,
2013-04-11 20:55:00,54.9,52.9,29.81,ENE,57,0.0,16.0,93,0.00,,,0.81,Wunderground v.1.15,2013-04-12 01:55:00,
2013-04-11 21:00:00,54.5,52.2,29.82,ENE,58,1.0,16.0,92,0.00,,,0.81,Wunderground v.1.15,2013-04-12 02:00:00,
2013-04-11 21:05:00,54.4,52.1,29.82,ENE,58,1.0,16.0,92,0.00,,,0.81,Wunderground v.1.15,2013-04-12 02:05:00,
2013-04-11 21:10:00,54.3,52.3,29.83,ENE,58,0.0,16.0,93,0.00,,,0.81,Wunderground v.1.15,2013-04-12 02:10:00,
2013-04-11 21:15:00,54.4,52.4,29.83,WNW,302,0.0,16.0,93,0.00,,,0.81,Wunderground v.1.15,2013-04-12 02:15:00,
2013-04-11 21:20:00,54.2,52.2,29.84,WNW,302,0.0,16.0,93,0.00,,,0.81,Wunderground v.1.15,2013-04-12 02:20:00,
2013-04-11 21:30:00,53.8,51.8,29.84,WNW,302,0.0,16.0,93,0.00,,,0.81,Wunderground v.1.15,2013-04-12 02:30:00,
2013-04-11 21:35:00,53.7,52.0,29.84,WNW,302,0.0,16.0,94,0.00,,,0.81,Wunderground v.1.15,2013-04-12 02:35:00,
2013-04-11 21:40:00,53.6,51.9,29.84,WNW,301,0.0,16.0,94,0.00,,,0.81,Wunderground v.1.15,2013-04-12 02:40:00,
2013-04-11 21:45:00,53.3,51.3,29.84,WNW,302,0.0,16.0,93,0.00,,,0.81,Wunderground v.1.15,2013-04-12 02:45:00,
2013-04-11 21:50:00,53.2,51.5,29.85,WNW,302,0.0,16.0,94,0.00,,,0.81,Wunderground v.1.15,2013-04-12 02:50:00,
2013-04-11 22:00:00,53.0,51.6,29.85,WNW,302,0.0,16.0,95,0.00,,,0.81,Wunderground v.1.15,2013-04-12 03:00:00,
2013-04-11 22:05:00,53.0,51.6,29.85,NW,307,0.0,16.0,95,0.00,,,0.81,Wunderground v.1.15,2013-04-12 03:05:00,
2013-04-11 22:10:00,53.1,51.4,29.86,NW,311,1.0,1.0,94,0.00,,,0.81,Wunderground v.1.15,2013-04-12 03:10:00,
2013-04-11 22:15:00,53.3,51.3,29.86,NW,305,1.0,16.0,93,0.00,,,0.81,Wunderground v.1.15,2013-04-12 03:15:00,
2013-04-11 22:20:00,53.2,51.2,29.86,NW,305,0.0,16.0,93,0.00,,,0.81,Wunderground v.1.15,2013-04-12 03:20:00,
2013-04-11 22:25:00,53.2,51.2,29.85,NW,326,0.0,16.0,93,0.00,,,0.81,Wunderground v.1.15,2013-04-12 03:25:00,
2013-04-11 22:30:00,53.4,51.4,29.86,NNW,337,1.0,16.0,93,0.00,,,0.81,Wunderground v.1.15,2013-04-12 03:30:00,
2013-04-11 22:35:00,53.6,51.0,29.86,NNW,347,2.0,16.0,91,0.00,,,0.81,Wunderground v.1.15,2013-04-12 03:35:00,
2013-04-11 22:40:00,53.8,50.6,29.86,North,353,2.0,2.0,89,0.00,,,0.81,Wunderground v.1.15,2013-04-12 03:40:00,
2013-04-11 22:45:00,53.7,50.5,29.86,NNW,346,1.0,16.0,89,0.00,,,0.81,Wunderground v.1.15,2013-04-12 03:45:00,
2013-04-11 22:50:00,53.7,50.2,29.86,NNW,333,1.0,16.0,88,0.00,,,0.81,Wunderground v.1.15,2013-04-12 03:50:00,
2013-04-11 22:55:00,53.7,50.2,29.86,North,350,1.0,16.0,88,0.00,,,0.81,Wunderground v.1.15,2013-04-12 03:55:00,
2013-04-11 23:00:00,53.6,50.1,29.86,North,2,1.0,16.0,88,0.00,,,0.81,Wunderground v.1.15,2013-04-12 04:00:00,
2013-04-11 23:05:00,53.7,50.2,29.86,North,358,1.0,16.0,88,0.00,,,0.81,Wunderground v.1.15,2013-04-12 04:05:00,
2013-04-11 23:10:00,53.6,49.8,29.86,North,8,2.0,16.0,87,0.00,,,0.81,Wunderground v.1.15,2013-04-12 04:10:00,
2013-04-11 23:15:00,53.6,49.8,29.86,NNW,332,2.0,16.0,87,0.00,,,0.81,Wunderground v.1.15,2013-04-12 04:15:00,
2013-04-11 23:20:00,53.5,49.7,29.86,NNW,340,2.0,16.0,87,0.00,,,0.81,Wunderground v.1.15,2013-04-12 04:20:00,
2013-04-11 23:30:00,53.6,48.9,29.86,North,354,3.0,16.0,84,0.00,,,0.81,Wunderground v.1.15,2013-04-12 04:30:00,
2013-04-11 23:35:00,53.9,48.5,29.86,North,354,3.0,16.0,82,0.00,,,0.81,Wunderground v.1.15,2013-04-12 04:35:00,
2013-04-11 23:40:00,54.0,48.6,29.87,North,3,3.0,3.0,82,0.00,,,0.81,Wunderground v.1.15,2013-04-12 04:40:00,
2013-04-11 23:45:00,54.0,48.3,29.87,NNW,348,3.0,16.0,81,0.00,,,0.81,Wunderground v.1.15,2013-04-12 04:45:00,
2013-04-11 23:50:00,53.9,48.2,29.87,North,10,3.0,16.0,81,0.00,,,0.81,Wunderground v.1.15,2013-04-12 04:50:00,
2013-04-11 23:55:00,53.9,48.2,29.87,North,352,3.0,16.0,81,0.00,,,0.81,Wunderground v.1.15,2013-04-12 04:55:00,